sensor_id;sensor_type;location;lat;lon;timestamp;pressure;altitude;pressure_sealevel;temperature;humidity
67052;BME280;53957;47.222;18.670;2023-05-20T00:03:09;100566.88;;;12.64;100.00
67052;BME280;53957;47.222;18.670;2023-05-20T00:06:34;100557.31;;;12.58;100.00
67052;BME280;53957;47.222;18.670;2023-05-20T00:09:38;100554.91;;;12.56;100.00
67052;BME280;53957;47.222;18.670;2023-05-20T00:13:03;100559.81;;;12.49;100.00
67052;BME280;53957;47.222;18.670;2023-05-20T00:16:29;100557.19;;;12.44;100.00
67052;BME280;53957;47.222;18.670;2023-05-20T00:19:51;100558.25;;;12.48;100.00
67052;BME280;53957;47.222;18.670;2023-05-20T00:22:54;100564.78;;;12.37;100.00
67052;BME280;53957;47.222;18.670;2023-05-20T00:26:02;100576.00;;;12.39;100.00
67052;BME280;53957;47.222;18.670;2023-05-20T00:29:05;100578.16;;;12.37;100.00
67052;BME280;53957;47.222;18.670;2023-05-20T00:32:10;100573.84;;;12.41;100.00
67052;BME280;53957;47.222;18.670;2023-05-20T00:35:16;100585.38;;;12.36;100.00
67052;BME280;53957;47.222;18.670;2023-05-20T00:38:40;100581.00;;;12.21;100.00
67052;BME280;53957;47.222;18.670;2023-05-20T00:41:44;100591.72;;;12.21;100.00
67052;BME280;53957;47.222;18.670;2023-05-20T00:45:09;100585.31;;;12.17;100.00
67052;BME280;53957;47.222;18.670;2023-05-20T00:48:21;100577.19;;;12.28;100.00
67052;BME280;53957;47.222;18.670;2023-05-20T00:51:27;100582.03;;;12.50;100.00
67052;BME280;53957;47.222;18.670;2023-05-20T00:54:31;100591.72;;;12.21;100.00
67052;BME280;53957;47.222;18.670;2023-05-20T00:57:35;100579.63;;;12.00;100.00
67052;BME280;53957;47.222;18.670;2023-05-20T01:00:38;100583.84;;;12.06;100.00
67052;BME280;53957;47.222;18.670;2023-05-20T01:03:42;100578.63;;;12.20;100.00
67052;BME280;53957;47.222;18.670;2023-05-20T01:06:45;100575.97;;;11.90;100.00
67052;BME280;53957;47.222;18.670;2023-05-20T01:09:52;100573.50;;;11.99;100.00
67052;BME280;53957;47.222;18.670;2023-05-20T01:12:57;100564.28;;;12.11;100.00
67052;BME280;53957;47.222;18.670;2023-05-20T01:16:06;100570.69;;;12.10;100.00
67052;BME280;53957;47.222;18.670;2023-05-20T01:19:23;100575.94;;;12.44;100.00
67052;BME280;53957;47.222;18.670;2023-05-20T01:22:30;100580.78;;;12.42;100.00
67052;BME280;53957;47.222;18.670;2023-05-20T01:25:33;100572.47;;;12.19;100.00
67052;BME280;53957;47.222;18.670;2023-05-20T01:28:37;100579.13;;;12.22;100.00
67052;BME280;53957;47.222;18.670;2023-05-20T01:31:40;100588.91;;;12.07;100.00
67052;BME280;53957;47.222;18.670;2023-05-20T01:34:49;100581.44;;;12.04;100.00
67052;BME280;53957;47.222;18.670;2023-05-20T01:37:52;100574.44;;;12.08;100.00
67052;BME280;53957;47.222;18.670;2023-05-20T01:41:01;100573.66;;;12.08;100.00
67052;BME280;53957;47.222;18.670;2023-05-20T01:44:05;100581.22;;;12.01;100.00
67052;BME280;53957;47.222;18.670;2023-05-20T01:47:09;100582.59;;;11.98;100.00
67052;BME280;53957;47.222;18.670;2023-05-20T01:50:13;100585.56;;;11.97;100.00
67052;BME280;53957;47.222;18.670;2023-05-20T01:53:16;100580.69;;;11.99;100.00
67052;BME280;53957;47.222;18.670;2023-05-20T01:56:19;100588.75;;;11.93;100.00
67052;BME280;53957;47.222;18.670;2023-05-20T01:59:25;100573.53;;;11.94;100.00
67052;BME280;53957;47.222;18.670;2023-05-20T02:02:28;100561.22;;;11.93;100.00
67052;BME280;53957;47.222;18.670;2023-05-20T02:05:31;100569.44;;;12.02;100.00
67052;BME280;53957;47.222;18.670;2023-05-20T02:08:34;100561.75;;;11.95;100.00
67052;BME280;53957;47.222;18.670;2023-05-20T02:11:37;100556.72;;;11.88;100.00
67052;BME280;53957;47.222;18.670;2023-05-20T02:14:41;100560.47;;;11.87;100.00
67052;BME280;53957;47.222;18.670;2023-05-20T02:17:45;100561.38;;;12.07;100.00
67052;BME280;53957;47.222;18.670;2023-05-20T02:20:49;100556.56;;;12.09;100.00
67052;BME280;53957;47.222;18.670;2023-05-20T02:23:52;100564.56;;;12.09;100.00
67052;BME280;53957;47.222;18.670;2023-05-20T02:26:55;100563.69;;;12.38;100.00
67052;BME280;53957;47.222;18.670;2023-05-20T02:29:59;100563.31;;;12.26;100.00
67052;BME280;53957;47.222;18.670;2023-05-20T02:33:04;100559.03;;;12.49;100.00
67052;BME280;53957;47.222;18.670;2023-05-20T02:36:08;100555.94;;;12.61;100.00
67052;BME280;53957;47.222;18.670;2023-05-20T02:39:12;100557.53;;;12.81;100.00
67052;BME280;53957;47.222;18.670;2023-05-20T02:42:19;100549.84;;;12.74;100.00
67052;BME280;53957;47.222;18.670;2023-05-20T02:45:23;100550.03;;;12.83;100.00
67052;BME280;53957;47.222;18.670;2023-05-20T02:48:27;100549.66;;;12.89;100.00
67052;BME280;53957;47.222;18.670;2023-05-20T02:51:30;100549.94;;;12.88;100.00
67052;BME280;53957;47.222;18.670;2023-05-20T02:54:35;100563.91;;;13.04;100.00
67052;BME280;53957;47.222;18.670;2023-05-20T02:57:38;100556.81;;;13.13;100.00
67052;BME280;53957;47.222;18.670;2023-05-20T03:00:42;100557.88;;;13.31;100.00
67052;BME280;53957;47.222;18.670;2023-05-20T03:03:46;100562.00;;;13.43;100.00
67052;BME280;53957;47.222;18.670;2023-05-20T03:06:50;100566.97;;;13.49;100.00
67052;BME280;53957;47.222;18.670;2023-05-20T03:09:53;100570.28;;;13.27;100.00
67052;BME280;53957;47.222;18.670;2023-05-20T03:12:58;100568.59;;;13.31;100.00
67052;BME280;53957;47.222;18.670;2023-05-20T03:16:01;100574.16;;;13.35;100.00
67052;BME280;53957;47.222;18.670;2023-05-20T03:19:13;100575.31;;;13.29;100.00
67052;BME280;53957;47.222;18.670;2023-05-20T03:22:16;100582.84;;;13.27;100.00
67052;BME280;53957;47.222;18.670;2023-05-20T03:25:21;100587.13;;;13.28;100.00
67052;BME280;53957;47.222;18.670;2023-05-20T03:28:27;100588.38;;;13.16;100.00
67052;BME280;53957;47.222;18.670;2023-05-20T03:31:30;100582.72;;;13.18;100.00
67052;BME280;53957;47.222;18.670;2023-05-20T03:34:33;100586.63;;;13.07;100.00
67052;BME280;53957;47.222;18.670;2023-05-20T03:37:40;100584.06;;;13.34;100.00
67052;BME280;53957;47.222;18.670;2023-05-20T03:41:02;100577.50;;;13.46;100.00
67052;BME280;53957;47.222;18.670;2023-05-20T03:44:07;100585.47;;;13.51;100.00
67052;BME280;53957;47.222;18.670;2023-05-20T03:47:10;100578.06;;;13.62;100.00
67052;BME280;53957;47.222;18.670;2023-05-20T03:50:13;100588.56;;;13.58;100.00
67052;BME280;53957;47.222;18.670;2023-05-20T03:53:16;100588.78;;;13.62;100.00
67052;BME280;53957;47.222;18.670;2023-05-20T03:56:19;100588.38;;;13.68;100.00
67052;BME280;53957;47.222;18.670;2023-05-20T03:59:22;100595.59;;;14.01;100.00
67052;BME280;53957;47.222;18.670;2023-05-20T04:02:29;100600.28;;;14.09;100.00
67052;BME280;53957;47.222;18.670;2023-05-20T04:05:33;100605.63;;;14.09;100.00
67052;BME280;53957;47.222;18.670;2023-05-20T04:08:38;100603.94;;;14.13;100.00
67052;BME280;53957;47.222;18.670;2023-05-20T04:11:41;100613.13;;;14.68;100.00
67052;BME280;53957;47.222;18.670;2023-05-20T04:14:44;100613.06;;;15.33;100.00
67052;BME280;53957;47.222;18.670;2023-05-20T04:17:47;100608.94;;;15.81;100.00
67052;BME280;53957;47.222;18.670;2023-05-20T04:20:53;100622.88;;;15.60;100.00
67052;BME280;53957;47.222;18.670;2023-05-20T04:23:58;100627.97;;;15.39;100.00
67052;BME280;53957;47.222;18.670;2023-05-20T04:27:01;100635.22;;;15.38;100.00
67052;BME280;53957;47.222;18.670;2023-05-20T04:30:07;100626.94;;;15.12;100.00
67052;BME280;53957;47.222;18.670;2023-05-20T04:33:13;100635.09;;;15.21;100.00
67052;BME280;53957;47.222;18.670;2023-05-20T04:36:16;100634.06;;;15.30;100.00
67052;BME280;53957;47.222;18.670;2023-05-20T04:39:19;100632.66;;;15.33;100.00
67052;BME280;53957;47.222;18.670;2023-05-20T04:42:25;100641.94;;;15.72;100.00
67052;BME280;53957;47.222;18.670;2023-05-20T04:45:28;100644.03;;;15.75;100.00
67052;BME280;53957;47.222;18.670;2023-05-20T04:48:32;100650.47;;;15.66;100.00
67052;BME280;53957;47.222;18.670;2023-05-20T04:51:35;100645.50;;;15.82;100.00
67052;BME280;53957;47.222;18.670;2023-05-20T04:54:38;100647.09;;;15.83;100.00
67052;BME280;53957;47.222;18.670;2023-05-20T04:57:41;100649.28;;;16.03;100.00
67052;BME280;53957;47.222;18.670;2023-05-20T05:00:46;100649.56;;;16.33;100.00
67052;BME280;53957;47.222;18.670;2023-05-20T05:03:52;100643.94;;;16.52;100.00
67052;BME280;53957;47.222;18.670;2023-05-20T05:06:55;100644.37;;;16.46;100.00
67052;BME280;53957;47.222;18.670;2023-05-20T05:09:58;100649.69;;;16.68;100.00
67052;BME280;53957;47.222;18.670;2023-05-20T05:13:05;100648.28;;;16.80;100.00
67052;BME280;53957;47.222;18.670;2023-05-20T05:16:18;100644.56;;;16.58;100.00
67052;BME280;53957;47.222;18.670;2023-05-20T05:19:22;100643.81;;;16.75;100.00
67052;BME280;53957;47.222;18.670;2023-05-20T05:22:30;100640.31;;;16.57;100.00
67052;BME280;53957;47.222;18.670;2023-05-20T05:25:33;100650.66;;;16.90;100.00
67052;BME280;53957;47.222;18.670;2023-05-20T05:28:36;100643.75;;;17.33;100.00
67052;BME280;53957;47.222;18.670;2023-05-20T05:31:39;100652.50;;;17.47;100.00
67052;BME280;53957;47.222;18.670;2023-05-20T05:34:42;100645.81;;;17.27;100.00
67052;BME280;53957;47.222;18.670;2023-05-20T05:37:46;100651.53;;;17.26;100.00
67052;BME280;53957;47.222;18.670;2023-05-20T05:40:49;100653.13;;;17.35;100.00
67052;BME280;53957;47.222;18.670;2023-05-20T05:43:52;100663.56;;;17.63;100.00
67052;BME280;53957;47.222;18.670;2023-05-20T05:46:56;100667.34;;;17.97;100.00
67052;BME280;53957;47.222;18.670;2023-05-20T05:49:59;100667.63;;;18.05;100.00
67052;BME280;53957;47.222;18.670;2023-05-20T05:53:04;100668.75;;;18.03;100.00
67052;BME280;53957;47.222;18.670;2023-05-20T05:56:10;100669.41;;;17.92;100.00
67052;BME280;53957;47.222;18.670;2023-05-20T05:59:36;100673.53;;;17.71;100.00
67052;BME280;53957;47.222;18.670;2023-05-20T06:02:41;100669.22;;;18.06;100.00
67052;BME280;53957;47.222;18.670;2023-05-20T06:05:45;100651.56;;;18.17;100.00
67052;BME280;53957;47.222;18.670;2023-05-20T06:08:56;100662.03;;;18.57;100.00
67052;BME280;53957;47.222;18.670;2023-05-20T06:12:05;100668.00;;;19.02;100.00
67052;BME280;53957;47.222;18.670;2023-05-20T06:15:09;100669.09;;;19.43;100.00
67052;BME280;53957;47.222;18.670;2023-05-20T06:18:16;100664.37;;;20.07;100.00
67052;BME280;53957;47.222;18.670;2023-05-20T06:21:19;100663.59;;;20.06;100.00
67052;BME280;53957;47.222;18.670;2023-05-20T06:24:23;100659.06;;;20.97;100.00
67052;BME280;53957;47.222;18.670;2023-05-20T06:27:26;100664.78;;;19.84;100.00
67052;BME280;53957;47.222;18.670;2023-05-20T06:30:29;100663.75;;;20.35;100.00
67052;BME280;53957;47.222;18.670;2023-05-20T06:33:33;100671.50;;;20.11;100.00
67052;BME280;53957;47.222;18.670;2023-05-20T06:36:36;100650.50;;;20.83;100.00
67052;BME280;53957;47.222;18.670;2023-05-20T06:39:39;100665.91;;;21.19;97.20
67052;BME280;53957;47.222;18.670;2023-05-20T06:42:43;100651.66;;;20.69;96.76
67052;BME280;53957;47.222;18.670;2023-05-20T06:45:47;100647.47;;;20.35;100.00
67052;BME280;53957;47.222;18.670;2023-05-20T06:48:51;100654.44;;;20.11;100.00
67052;BME280;53957;47.222;18.670;2023-05-20T06:51:54;100642.25;;;20.67;100.00
67052;BME280;53957;47.222;18.670;2023-05-20T06:54:58;100639.81;;;21.15;96.25
67052;BME280;53957;47.222;18.670;2023-05-20T06:58:02;100635.00;;;21.36;98.63
67052;BME280;53957;47.222;18.670;2023-05-20T07:01:05;100643.06;;;21.20;100.00
67052;BME280;53957;47.222;18.670;2023-05-20T07:04:09;100646.84;;;21.88;88.68
67052;BME280;53957;47.222;18.670;2023-05-20T07:07:35;100639.81;;;22.67;91.42
67052;BME280;53957;47.222;18.670;2023-05-20T07:10:39;100626.75;;;22.57;90.09
67052;BME280;53957;47.222;18.670;2023-05-20T07:13:47;100638.25;;;22.50;87.20
67052;BME280;53957;47.222;18.670;2023-05-20T07:16:50;100633.97;;;21.85;91.02
67052;BME280;53957;47.222;18.670;2023-05-20T07:19:54;100632.31;;;21.52;97.59
67052;BME280;53957;47.222;18.670;2023-05-20T07:23:04;100635.59;;;22.70;89.53
67052;BME280;53957;47.222;18.670;2023-05-20T07:26:11;100629.50;;;22.09;98.61
67052;BME280;53957;47.222;18.670;2023-05-20T07:29:14;100623.63;;;22.23;87.50
67052;BME280;53957;47.222;18.670;2023-05-20T07:32:19;100628.09;;;22.31;89.14
67052;BME280;53957;47.222;18.670;2023-05-20T07:35:21;100631.94;;;22.30;84.57
67052;BME280;53957;47.222;18.670;2023-05-20T07:38:27;100631.94;;;21.82;91.62
67052;BME280;53957;47.222;18.670;2023-05-20T07:41:33;100630.88;;;21.71;92.25
67052;BME280;53957;47.222;18.670;2023-05-20T07:44:36;100628.97;;;21.43;92.23
67052;BME280;53957;47.222;18.670;2023-05-20T07:47:39;100627.06;;;21.88;85.32
67052;BME280;53957;47.222;18.670;2023-05-20T07:50:45;100627.97;;;21.64;91.59
67052;BME280;53957;47.222;18.670;2023-05-20T07:53:49;100626.06;;;22.12;90.30
67052;BME280;53957;47.222;18.670;2023-05-20T07:56:53;100618.38;;;22.14;88.03
67052;BME280;53957;47.222;18.670;2023-05-20T07:59:56;100625.94;;;21.89;87.45
67052;BME280;53957;47.222;18.670;2023-05-20T08:02:59;100630.37;;;21.97;89.20
67052;BME280;53957;47.222;18.670;2023-05-20T08:06:03;100630.37;;;22.13;92.13
67052;BME280;53957;47.222;18.670;2023-05-20T08:09:09;100617.59;;;22.14;89.88
67052;BME280;53957;47.222;18.670;2023-05-20T08:12:13;100622.84;;;22.39;85.82
67052;BME280;53957;47.222;18.670;2023-05-20T08:15:16;100619.13;;;22.31;85.72
67052;BME280;53957;47.222;18.670;2023-05-20T08:18:21;100615.22;;;22.12;85.25
67052;BME280;53957;47.222;18.670;2023-05-20T08:21:24;100617.16;;;21.96;87.89
67052;BME280;53957;47.222;18.670;2023-05-20T08:24:28;100615.56;;;22.27;88.45
67052;BME280;53957;47.222;18.670;2023-05-20T08:27:31;100605.22;;;22.48;89.89
67052;BME280;53957;47.222;18.670;2023-05-20T08:30:36;100607.25;;;22.19;92.56
67052;BME280;53957;47.222;18.670;2023-05-20T08:33:41;100592.34;;;22.13;91.99
67052;BME280;53957;47.222;18.670;2023-05-20T08:36:44;100593.47;;;22.44;90.18
67052;BME280;53957;47.222;18.670;2023-05-20T08:39:49;100597.88;;;22.68;86.26
67052;BME280;53957;47.222;18.670;2023-05-20T08:42:54;100591.06;;;22.59;86.44
67052;BME280;53957;47.222;18.670;2023-05-20T08:45:57;100595.31;;;22.40;86.64
67052;BME280;53957;47.222;18.670;2023-05-20T08:49:03;100596.66;;;22.66;81.94
67052;BME280;53957;47.222;18.670;2023-05-20T08:52:08;100585.50;;;22.71;85.28
67052;BME280;53957;47.222;18.670;2023-05-20T08:55:41;100591.34;;;22.54;88.55
67052;BME280;53957;47.222;18.670;2023-05-20T08:58:44;100588.94;;;22.88;82.44
67052;BME280;53957;47.222;18.670;2023-05-20T09:01:51;100594.62;;;22.63;85.46
67052;BME280;53957;47.222;18.670;2023-05-20T09:04:57;100585.00;;;22.85;81.37
67052;BME280;53957;47.222;18.670;2023-05-20T09:08:07;100589.66;;;22.84;89.92
67052;BME280;53957;47.222;18.670;2023-05-20T09:11:30;100584.22;;;22.84;79.98
67052;BME280;53957;47.222;18.670;2023-05-20T09:14:53;100583.66;;;22.95;76.68
67052;BME280;53957;47.222;18.670;2023-05-20T09:17:59;100575.22;;;22.80;79.25
67052;BME280;53957;47.222;18.670;2023-05-20T09:21:06;100573.66;;;22.99;86.26
67052;BME280;53957;47.222;18.670;2023-05-20T09:24:08;100566.03;;;23.08;79.33
67052;BME280;53957;47.222;18.670;2023-05-20T09:27:11;100564.59;;;23.14;81.06
67052;BME280;53957;47.222;18.670;2023-05-20T09:30:18;100570.78;;;23.11;85.25
67052;BME280;53957;47.222;18.670;2023-05-20T09:33:26;100565.13;;;23.43;87.01
67052;BME280;53957;47.222;18.670;2023-05-20T09:36:31;100568.59;;;23.40;82.88
67052;BME280;53957;47.222;18.670;2023-05-20T09:39:45;100555.31;;;22.96;77.27
67052;BME280;53957;47.222;18.670;2023-05-20T09:43:07;100552.44;;;23.28;87.34
67052;BME280;53957;47.222;18.670;2023-05-20T09:46:13;100553.72;;;23.14;79.20
67052;BME280;53957;47.222;18.670;2023-05-20T09:49:19;100545.91;;;23.13;78.13
67052;BME280;53957;47.222;18.670;2023-05-20T09:52:23;100536.47;;;23.07;73.91
67052;BME280;53957;47.222;18.670;2023-05-20T09:55:28;100541.97;;;23.10;82.84
67052;BME280;53957;47.222;18.670;2023-05-20T09:58:34;100535.28;;;23.24;80.50
67052;BME280;53957;47.222;18.670;2023-05-20T10:01:37;100529.09;;;23.73;75.76
67052;BME280;53957;47.222;18.670;2023-05-20T10:04:44;100538.22;;;23.61;77.63
67052;BME280;53957;47.222;18.670;2023-05-20T10:07:53;100535.37;;;23.77;71.34
67052;BME280;53957;47.222;18.670;2023-05-20T10:18:33;100512.22;;;23.91;71.97
67052;BME280;53957;47.222;18.670;2023-05-20T10:21:38;100510.16;;;24.07;76.08
67052;BME280;53957;47.222;18.670;2023-05-20T10:24:42;100507.44;;;24.07;75.19
67052;BME280;53957;47.222;18.670;2023-05-20T10:27:46;100509.22;;;24.23;77.05
67052;BME280;53957;47.222;18.670;2023-05-20T10:30:49;100504.59;;;24.00;68.96
67052;BME280;53957;47.222;18.670;2023-05-20T10:33:54;100503.22;;;24.14;70.75
67052;BME280;53957;47.222;18.670;2023-05-20T10:37:00;100495.13;;;24.48;71.20
67052;BME280;53957;47.222;18.670;2023-05-20T10:40:11;100497.09;;;24.20;64.37
67052;BME280;53957;47.222;18.670;2023-05-20T10:43:29;100492.22;;;24.06;64.82
67052;BME280;53957;47.222;18.670;2023-05-20T10:46:34;100487.97;;;24.05;66.15
67052;BME280;53957;47.222;18.670;2023-05-20T10:49:58;100483.09;;;24.52;68.40
67052;BME280;53957;47.222;18.670;2023-05-20T10:53:11;100482.62;;;24.47;65.75
67052;BME280;53957;47.222;18.670;2023-05-20T10:56:31;100488.88;;;24.47;61.31
67052;BME280;53957;47.222;18.670;2023-05-20T10:59:35;100485.59;;;24.34;58.15
67052;BME280;53957;47.222;18.670;2023-05-20T11:02:39;100491.47;;;24.36;65.72
67052;BME280;53957;47.222;18.670;2023-05-20T11:05:44;100490.38;;;24.44;61.44
67052;BME280;53957;47.222;18.670;2023-05-20T11:08:49;100485.47;;;24.88;65.52
67052;BME280;53957;47.222;18.670;2023-05-20T11:11:52;100485.34;;;24.77;62.27
67052;BME280;53957;47.222;18.670;2023-05-20T11:14:55;100481.00;;;25.10;62.30
67052;BME280;53957;47.222;18.670;2023-05-20T11:18:01;100486.62;;;24.87;60.61
67052;BME280;53957;47.222;18.670;2023-05-20T11:21:05;100477.34;;;24.61;56.13
67052;BME280;53957;47.222;18.670;2023-05-20T11:24:08;100475.13;;;24.70;59.13
67052;BME280;53957;47.222;18.670;2023-05-20T11:27:13;100463.87;;;24.41;58.08
67052;BME280;53957;47.222;18.670;2023-05-20T11:30:17;100472.78;;;24.69;54.83
67052;BME280;53957;47.222;18.670;2023-05-20T11:33:25;100472.06;;;24.75;59.91
67052;BME280;53957;47.222;18.670;2023-05-20T11:36:29;100469.09;;;24.88;56.23
67052;BME280;53957;47.222;18.670;2023-05-20T11:39:32;100467.97;;;24.92;52.66
67052;BME280;53957;47.222;18.670;2023-05-20T11:42:35;100467.56;;;24.90;55.55
67052;BME280;53957;47.222;18.670;2023-05-20T11:45:43;100467.41;;;24.76;53.89
67052;BME280;53957;47.222;18.670;2023-05-20T11:48:56;100459.31;;;24.83;50.59
67052;BME280;53957;47.222;18.670;2023-05-20T11:52:02;100457.19;;;24.69;48.13
67052;BME280;53957;47.222;18.670;2023-05-20T11:55:09;100449.25;;;24.91;48.36
67052;BME280;53957;47.222;18.670;2023-05-20T11:58:22;100460.63;;;24.97;48.27
67052;BME280;53957;47.222;18.670;2023-05-20T12:01:25;100448.91;;;24.96;49.00
67052;BME280;53957;47.222;18.670;2023-05-20T12:04:32;100451.16;;;24.87;52.21
67052;BME280;53957;47.222;18.670;2023-05-20T12:07:34;100456.69;;;24.94;50.50
67052;BME280;53957;47.222;18.670;2023-05-20T12:10:38;100454.66;;;25.29;48.37
67052;BME280;53957;47.222;18.670;2023-05-20T12:13:41;100456.12;;;25.19;47.32
67052;BME280;53957;47.222;18.670;2023-05-20T12:16:44;100446.94;;;24.93;49.00
67052;BME280;53957;47.222;18.670;2023-05-20T12:19:48;100443.34;;;25.30;51.48
67052;BME280;53957;47.222;18.670;2023-05-20T12:22:51;100442.78;;;25.06;46.09
67052;BME280;53957;47.222;18.670;2023-05-20T12:25:54;100448.47;;;25.35;48.66
67052;BME280;53957;47.222;18.670;2023-05-20T12:28:57;100439.56;;;24.97;48.80
67052;BME280;53957;47.222;18.670;2023-05-20T12:32:01;100435.16;;;25.30;50.44
67052;BME280;53957;47.222;18.670;2023-05-20T12:35:05;100423.25;;;25.04;49.84
67052;BME280;53957;47.222;18.670;2023-05-20T12:38:11;100428.88;;;25.22;48.69
67052;BME280;53957;47.222;18.670;2023-05-20T12:41:14;100428.06;;;25.22;50.77
67052;BME280;53957;47.222;18.670;2023-05-20T12:44:19;100414.53;;;25.36;46.78
67052;BME280;53957;47.222;18.670;2023-05-20T12:47:23;100422.72;;;25.36;47.71
67052;BME280;53957;47.222;18.670;2023-05-20T12:50:29;100414.44;;;25.22;48.34
67052;BME280;53957;47.222;18.670;2023-05-20T16:02:15;100276.41;;;24.24;49.54
67052;BME280;53957;47.222;18.670;2023-05-20T16:05:19;100272.66;;;24.39;49.32
67052;BME280;53957;47.222;18.670;2023-05-20T16:08:26;100268.31;;;24.35;46.49
67052;BME280;53957;47.222;18.670;2023-05-20T16:11:31;100257.06;;;24.36;47.57
67052;BME280;53957;47.222;18.670;2023-05-20T16:14:33;100258.97;;;24.36;48.26
67052;BME280;53957;47.222;18.670;2023-05-20T16:17:37;100253.09;;;24.30;48.58
67052;BME280;53957;47.222;18.670;2023-05-20T16:20:40;100247.31;;;24.35;48.46
67052;BME280;53957;47.222;18.670;2023-05-20T16:23:43;100243.22;;;24.15;50.76
67052;BME280;53957;47.222;18.670;2023-05-20T16:26:46;100256.94;;;24.25;51.63
67052;BME280;53957;47.222;18.670;2023-05-20T16:29:51;100242.56;;;24.25;51.64
67052;BME280;53957;47.222;18.670;2023-05-20T16:32:54;100251.97;;;24.35;51.40
67052;BME280;53957;47.222;18.670;2023-05-20T16:35:58;100255.84;;;24.30;55.63
67052;BME280;53957;47.222;18.670;2023-05-20T16:39:03;100250.37;;;24.30;56.59
67052;BME280;53957;47.222;18.670;2023-05-20T16:42:07;100250.84;;;24.39;55.11
67052;BME280;53957;47.222;18.670;2023-05-20T16:45:12;100251.66;;;24.02;63.91
67052;BME280;53957;47.222;18.670;2023-05-20T16:48:16;100255.62;;;24.08;59.37
67052;BME280;53957;47.222;18.670;2023-05-20T16:51:19;100253.97;;;24.00;61.65
67052;BME280;53957;47.222;18.670;2023-05-20T16:54:22;100253.03;;;23.89;62.23
67052;BME280;53957;47.222;18.670;2023-05-20T16:57:25;100256.28;;;23.64;63.96
67052;BME280;53957;47.222;18.670;2023-05-20T17:00:28;100262.81;;;23.56;66.07
67052;BME280;53957;47.222;18.670;2023-05-20T17:03:31;100263.34;;;23.38;69.06
67052;BME280;53957;47.222;18.670;2023-05-20T17:06:35;100258.88;;;23.23;68.75
67052;BME280;53957;47.222;18.670;2023-05-20T17:09:38;100264.06;;;23.08;70.07
67052;BME280;53957;47.222;18.670;2023-05-20T17:12:41;100257.75;;;23.00;70.10
67052;BME280;53957;47.222;18.670;2023-05-20T17:15:44;100260.19;;;22.82;74.96
67052;BME280;53957;47.222;18.670;2023-05-20T17:18:47;100272.59;;;22.57;77.49
67052;BME280;53957;47.222;18.670;2023-05-20T17:21:50;100266.31;;;22.52;76.53
67052;BME280;53957;47.222;18.670;2023-05-20T17:24:53;100274.13;;;22.34;79.33
67052;BME280;53957;47.222;18.670;2023-05-20T17:27:56;100270.06;;;22.25;79.40
67052;BME280;53957;47.222;18.670;2023-05-20T17:30:59;100281.34;;;22.03;81.66
67052;BME280;53957;47.222;18.670;2023-05-20T17:34:01;100278.63;;;21.84;83.64
67052;BME280;53957;47.222;18.670;2023-05-20T17:37:05;100273.19;;;21.84;82.44
67052;BME280;53957;47.222;18.670;2023-05-20T17:40:09;100268.28;;;21.70;84.09
67052;BME280;53957;47.222;18.670;2023-05-20T17:43:13;100260.97;;;21.54;83.56
67052;BME280;53957;47.222;18.670;2023-05-20T17:46:15;100273.25;;;21.48;83.65
67052;BME280;53957;47.222;18.670;2023-05-20T17:49:18;100269.72;;;21.48;82.80
67052;BME280;53957;47.222;18.670;2023-05-20T17:52:21;100271.84;;;21.19;85.31
67052;BME280;53957;47.222;18.670;2023-05-20T17:55:24;100280.16;;;21.10;86.24
67052;BME280;53957;47.222;18.670;2023-05-20T17:58:27;100275.72;;;21.02;86.44
67052;BME280;53957;47.222;18.670;2023-05-20T18:01:30;100277.13;;;20.80;86.41
67052;BME280;53957;47.222;18.670;2023-05-20T18:04:33;100278.41;;;20.70;89.52
67052;BME280;53957;47.222;18.670;2023-05-20T18:07:36;100279.12;;;20.83;85.74
67052;BME280;53957;47.222;18.670;2023-05-20T18:10:39;100282.34;;;20.56;89.12
67052;BME280;53957;47.222;18.670;2023-05-20T18:13:42;100278.59;;;20.61;86.66
67052;BME280;53957;47.222;18.670;2023-05-20T18:16:45;100287.81;;;20.28;90.62
67052;BME280;53957;47.222;18.670;2023-05-20T18:19:48;100282.09;;;20.17;93.13
67052;BME280;53957;47.222;18.670;2023-05-20T18:22:52;100287.00;;;20.11;93.43
67052;BME280;53957;47.222;18.670;2023-05-20T18:25:59;100285.50;;;20.14;92.01
67052;BME280;53957;47.222;18.670;2023-05-20T18:29:08;100285.31;;;20.07;92.88
67052;BME280;53957;47.222;18.670;2023-05-20T18:32:11;100287.38;;;19.98;94.44
67052;BME280;53957;47.222;18.670;2023-05-20T18:35:14;100286.16;;;19.95;95.53
67052;BME280;53957;47.222;18.670;2023-05-20T18:38:17;100282.72;;;19.70;99.99
67052;BME280;53957;47.222;18.670;2023-05-20T18:41:20;100285.38;;;19.41;100.00
67052;BME280;53957;47.222;18.670;2023-05-20T18:44:30;100277.16;;;19.25;100.00
67052;BME280;53957;47.222;18.670;2023-05-20T18:47:33;100287.09;;;19.21;100.00
67052;BME280;53957;47.222;18.670;2023-05-20T18:50:36;100285.50;;;19.33;100.00
67052;BME280;53957;47.222;18.670;2023-05-20T18:53:40;100289.13;;;18.99;100.00
67052;BME280;53957;47.222;18.670;2023-05-20T18:56:43;100291.47;;;19.01;100.00
